Time;durP1;ratioP1;P1;durP2;ratioP2;P2;SDS_P1;SDS_P2;PMS_P1;PMS_P2;Temp;Humidity;BMP_temperature;BMP_pressure;BME280_temperature;BME280_humidity;BME280_pressure;Samples;Min_cycle;Max_cycle;Signal;HPM_P1;HPM_P2
2022/10/12 00:00:24;;;;;;;3.05;1.27;;;20.10;46.40;;;;;;20643545;28;20077;-85
2022/10/12 00:10:26;;;;;;;2.20;1.17;;;20.10;46.30;;;;;;20653570;28;20377;-87
2022/10/12 00:20:26;;;;;;;4.40;1.02;;;20.10;46.30;;;;;;20637003;28;20050;-84
2022/10/12 00:30:27;;;;;;;2.28;1.20;;;20.00;46.20;;;;;;20647674;28;20044;-86
2022/10/12 00:40:28;;;;;;;2.58;1.20;;;20.00;46.20;;;;;;20664371;28;20041;-86
2022/10/12 00:50:33;;;;;;;2.63;1.13;;;20.10;46.20;;;;;;20737754;28;20523;-87
2022/10/12 01:00:34;;;;;;;2.53;1.20;;;20.10;46.20;;;;;;20672326;28;20039;-85
2022/10/12 01:10:35;;;;;;;2.90;1.30;;;20.00;46.10;;;;;;20656647;28;20133;-87
2022/10/12 01:20:45;;;;;;;3.95;1.75;;;20.00;46.00;;;;;;20622814;28;20057;-86
2022/10/12 01:30:49;;;;;;;3.97;1.20;;;20.00;46.00;;;;;;20622723;28;20058;-84
2022/10/12 01:41:03;;;;;;;1.77;0.95;;;19.90;45.90;;;;;;20638820;28;20066;-86
2022/10/12 01:51:03;;;;;;;2.10;1.10;;;19.90;45.90;;;;;;21006312;23;20141;-86
2022/10/12 02:01:12;;;;;;;2.28;1.17;;;19.90;45.80;;;;;;20717362;28;20049;-88
2022/10/12 02:11:14;;;;;;;2.15;1.20;;;19.90;45.80;;;;;;20760903;28;20045;-88
2022/10/12 02:21:17;;;;;;;2.63;1.17;;;19.80;45.70;;;;;;20734192;28;20049;-87
2022/10/12 02:31:28;;;;;;;2.60;1.25;;;19.80;45.70;;;;;;20715829;28;20129;-86
2022/10/12 02:41:32;;;;;;;1.65;0.98;;;19.80;45.70;;;;;;20738580;28;20538;-87
2022/10/12 02:51:34;;;;;;;3.60;1.20;;;19.70;45.60;;;;;;20764181;28;20042;-87
2022/10/12 03:01:35;;;;;;;3.85;1.10;;;19.80;45.60;;;;;;20729102;28;20128;-86
2022/10/12 03:11:42;;;;;;;1.77;0.90;;;19.70;45.50;;;;;;20664271;28;20065;-87
2022/10/12 03:21:43;;;;;;;1.95;0.95;;;19.70;45.40;;;;;;20701048;28;20034;-84
2022/10/12 03:31:43;;;;;;;1.85;1.00;;;19.60;45.40;;;;;;20734805;28;20042;-78
2022/10/12 03:41:44;;;;;;;1.52;0.65;;;19.60;45.30;;;;;;20731703;28;20046;-74
2022/10/12 03:51:44;;;;;;;2.70;1.20;;;19.60;45.30;;;;;;20713814;28;20049;-75
2022/10/12 04:01:45;;;;;;;3.42;1.38;;;19.60;45.30;;;;;;20717804;28;20168;-89
2022/10/12 04:11:46;;;;;;;2.22;1.40;;;19.50;45.10;;;;;;20718108;28;20041;-89
2022/10/12 04:21:46;;;;;;;3.42;1.02;;;20.20;44.10;;;;;;20727925;28;20439;-79
2022/10/12 04:31:48;;;;;;;1.35;0.77;;;20.40;43.60;;;;;;20728743;28;20041;-73
2022/10/12 04:41:49;;;;;;;2.57;1.03;;;20.70;43.10;;;;;;20712463;28;20121;-80
2022/10/12 04:51:50;;;;;;;3.22;1.20;;;20.90;42.70;;;;;;20698213;28;20304;-75
2022/10/12 05:01:50;;;;;;;2.30;1.10;;;21.00;42.40;;;;;;20698669;28;20046;-85
2022/10/12 05:11:51;;;;;;;4.07;1.15;;;21.00;42.00;;;;;;20679267;28;20032;-79
2022/10/12 05:21:53;;;;;;;1.25;0.70;;;21.00;41.90;;;;;;20708421;28;20053;-77
2022/10/12 05:31:54;;;;;;;1.85;0.88;;;21.00;42.00;;;;;;20697070;28;20049;-76
2022/10/12 05:41:54;;;;;;;1.83;0.70;;;20.90;42.00;;;;;;20722408;28;20500;-73
2022/10/12 05:51:55;;;;;;;1.08;0.63;;;20.90;41.90;;;;;;20720622;28;20049;-74
2022/10/12 06:01:55;;;;;;;2.47;1.02;;;20.80;41.90;;;;;;20729377;28;20049;-74
2022/10/12 06:11:56;;;;;;;2.03;1.07;;;20.70;41.90;;;;;;20670574;28;20030;-74
2022/10/12 06:21:57;;;;;;;3.72;1.13;;;20.70;42.00;;;;;;20689695;28;20303;-73
2022/10/12 06:31:57;;;;;;;1.38;0.88;;;20.60;42.00;;;;;;20689546;28;20431;-74
2022/10/12 06:41:58;;;;;;;1.80;1.05;;;20.60;42.10;;;;;;20700700;28;20030;-74
2022/10/12 06:52:02;;;;;;;1.15;0.60;;;20.50;42.20;;;;;;20703751;28;20412;-73
2022/10/12 07:02:02;;;;;;;2.37;1.53;;;20.50;42.30;;;;;;20751064;28;20033;-74
2022/10/12 07:12:03;;;;;;;1.73;1.13;;;20.40;42.40;;;;;;20733963;28;20480;-73
2022/10/12 07:22:04;;;;;;;2.05;1.17;;;20.30;42.50;;;;;;20718079;28;20029;-74
2022/10/12 07:32:05;;;;;;;1.75;0.70;;;20.30;42.80;;;;;;20716823;28;20040;-74
2022/10/12 07:42:05;;;;;;;1.73;0.60;;;20.30;43.00;;;;;;20748443;28;20030;-74
2022/10/12 07:52:06;;;;;;;2.53;0.70;;;20.20;43.10;;;;;;20730672;28;20041;-74
2022/10/12 08:02:09;;;;;;;2.37;0.80;;;20.20;43.30;;;;;;20713923;28;20124;-73
2022/10/12 08:12:10;;;;;;;1.73;0.65;;;20.20;43.50;;;;;;20648174;28;20030;-74
2022/10/12 08:22:11;;;;;;;1.75;0.90;;;20.20;43.70;;;;;;20648716;28;20046;-75
2022/10/12 08:32:12;;;;;;;0.93;0.60;;;20.20;43.80;;;;;;20703882;28;20523;-75
2022/10/12 08:42:27;;;;;;;1.40;0.80;;;20.30;43.90;;;;;;20711169;28;20049;-75
2022/10/12 08:52:30;;;;;;;2.50;0.70;;;20.30;43.90;;;;;;20694739;28;20052;-75
2022/10/12 09:02:52;;;;;;;1.58;0.70;;;20.30;43.90;;;;;;20708038;28;20488;-75
2022/10/12 09:12:59;;;;;;;1.10;0.63;;;20.40;43.90;;;;;;20726698;28;20068;-75
2022/10/12 09:23:24;;;;;;;0.57;0.50;;;20.50;43.80;;;;;;20692681;28;20030;-75
2022/10/12 09:33:27;;;;;;;0.75;0.43;;;20.50;43.80;;;;;;20716600;28;20046;-75
2022/10/12 09:43:27;;;;;;;0.65;0.50;;;20.60;43.80;;;;;;20708300;28;20042;-76
2022/10/12 09:53:45;;;;;;;2.55;0.43;;;20.70;43.60;;;;;;20706994;28;20507;-75
2022/10/12 10:03:47;;;;;;;2.53;0.80;;;20.80;43.50;;;;;;20683675;28;20049;-74
2022/10/12 10:13:53;;;;;;;1.23;0.50;;;20.90;43.40;;;;;;20695088;28;20435;-75
2022/10/12 10:23:56;;;;;;;1.23;0.70;;;21.00;43.20;;;;;;20722368;28;20038;-75
2022/10/12 10:34:06;;;;;;;1.73;0.80;;;21.00;43.20;;;;;;20705413;28;20603;-74
2022/10/12 10:44:30;;;;;;;2.67;0.50;;;20.50;44.00;;;;;;20752258;28;20030;-73
2022/10/12 10:54:33;;;;;;;0.90;0.45;;;20.10;45.00;;;;;;20735410;28;20042;-75
2022/10/12 11:04:40;;;;;;;1.23;0.60;;;19.90;45.70;;;;;;20703211;28;20046;-74
2022/10/12 11:14:46;;;;;;;0.80;0.55;;;19.90;45.30;;;;;;20721876;28;20041;-78
2022/10/12 11:24:53;;;;;;;0.70;0.40;;;20.10;45.10;;;;;;20704321;28;20061;-79
2022/10/12 11:34:56;;;;;;;0.68;0.45;;;20.30;44.90;;;;;;20717452;28;20399;-74
2022/10/12 11:44:59;;;;;;;1.33;0.43;;;20.50;44.70;;;;;;20732043;28;20025;-75
2022/10/12 11:55:25;;;;;;;1.13;0.47;;;20.50;44.40;;;;;;20637455;28;20042;-79
2022/10/12 12:05:30;;;;;;;0.50;0.40;;;20.70;44.20;;;;;;20716575;28;20046;-77
2022/10/12 12:15:34;;;;;;;0.57;0.38;;;20.90;43.90;;;;;;20703935;28;20042;-77
2022/10/12 12:25:35;;;;;;;1.00;0.40;;;21.10;43.70;;;;;;20697813;28;20041;-74
2022/10/12 12:35:37;;;;;;;0.95;0.47;;;21.20;44.00;;;;;;20672161;28;20099;-75
2022/10/12 12:45:39;;;;;;;1.02;0.40;;;21.40;43.20;;;;;;20688831;28;20065;-71
2022/10/12 12:55:58;;;;;;;1.45;0.38;;;21.50;43.00;;;;;;20706665;28;20116;-69
2022/10/12 13:06:22;;;;;;;0.98;0.40;;;21.60;42.90;;;;;;20726828;28;20084;-73
2022/10/12 13:16:22;;;;;;;1.38;0.45;;;21.60;42.80;;;;;;20708098;28;20044;-74
2022/10/12 13:26:24;;;;;;;1.02;0.50;;;21.70;42.80;;;;;;20738683;28;20109;-78
2022/10/12 13:36:27;;;;;;;0.82;0.30;;;21.60;42.90;;;;;;20710150;28;20038;-76
2022/10/12 13:46:46;;;;;;;1.52;0.47;;;21.70;43.50;;;;;;20698141;28;20392;-78
2022/10/12 13:56:49;;;;;;;0.50;0.30;;;21.70;42.90;;;;;;20737888;28;20041;-77
2022/10/12 14:07:15;;;;;;;1.85;0.40;;;21.70;43.00;;;;;;20719678;28;20204;-78
2022/10/12 14:17:16;;;;;;;0.60;0.40;;;21.70;43.10;;;;;;20754940;28;20041;-80
2022/10/12 14:27:22;;;;;;;1.45;1.25;;;21.60;43.10;;;;;;20722886;28;20130;-81
2022/10/12 14:37:25;;;;;;;1.20;0.43;;;21.70;43.20;;;;;;20751344;28;20038;-75
2022/10/12 14:47:31;;;;;;;0.40;0.30;;;21.70;43.20;;;;;;20765772;28;20046;-76
2022/10/12 14:57:31;;;;;;;0.40;0.40;;;21.70;43.30;;;;;;20732146;28;20044;-79
2022/10/12 15:07:32;;;;;;;2.63;0.50;;;21.70;43.20;;;;;;20724543;28;20499;-76
2022/10/12 15:17:35;;;;;;;1.13;0.50;;;21.70;43.40;;;;;;20738938;28;20080;-75
2022/10/12 15:27:35;;;;;;;1.40;0.50;;;21.80;43.50;;;;;;20720527;28;20096;-79
2022/10/12 15:37:40;;;;;;;1.40;0.57;;;21.70;43.50;;;;;;20720276;28;20034;-79
2022/10/12 15:47:48;;;;;;;0.93;0.50;;;21.70;43.50;;;;;;20737927;28;20040;-80
2022/10/12 15:57:51;;;;;;;0.50;0.30;;;21.80;43.60;;;;;;20683045;28;20366;-84
2022/10/12 16:07:52;;;;;;;1.92;0.80;;;21.70;43.60;;;;;;20727701;28;20042;-79
2022/10/12 16:17:53;;;;;;;1.58;0.40;;;21.80;43.90;;;;;;20635819;28;20034;-77
2022/10/12 16:27:54;;;;;;;2.10;0.40;;;21.70;44.00;;;;;;20674173;28;20034;-76
2022/10/12 16:37:55;;;;;;;1.65;0.73;;;21.70;44.00;;;;;;20689499;28;20292;-77
2022/10/12 16:47:56;;;;;;;1.13;0.40;;;21.60;44.00;;;;;;20713731;28;20046;-77
2022/10/12 16:57:56;;;;;;;1.90;0.70;;;21.60;44.10;;;;;;20723052;28;20038;-79
2022/10/12 17:07:57;;;;;;;1.20;0.45;;;21.50;44.10;;;;;;20707307;28;20044;-80
2022/10/12 17:17:58;;;;;;;1.75;0.50;;;21.50;44.20;;;;;;20629684;28;20472;-82
2022/10/12 17:28:00;;;;;;;5.18;0.70;;;21.40;44.30;;;;;;20730853;28;20042;-78
2022/10/12 17:38:01;;;;;;;2.08;0.52;;;21.30;44.40;;;;;;20706430;28;20557;-77
2022/10/12 17:48:02;;;;;;;1.58;0.60;;;21.30;45.20;;;;;;20718230;28;20041;-78
2022/10/12 17:58:04;;;;;;;1.33;0.68;;;21.20;44.50;;;;;;20700249;28;20464;-78
2022/10/12 18:08:06;;;;;;;0.88;0.60;;;21.20;44.60;;;;;;20687543;28;20074;-78
2022/10/12 18:18:07;;;;;;;2.70;0.50;;;21.20;44.60;;;;;;20697463;28;20491;-79
2022/10/12 18:28:09;;;;;;;2.88;0.63;;;21.10;44.60;;;;;;20727476;28;20113;-78
2022/10/12 18:38:09;;;;;;;1.55;0.73;;;21.20;44.70;;;;;;20731516;28;20099;-78
2022/10/12 18:48:11;;;;;;;1.40;0.57;;;21.10;44.70;;;;;;20717331;28;20037;-78
2022/10/12 18:58:11;;;;;;;1.92;0.63;;;21.10;44.70;;;;;;20703624;28;20472;-78
2022/10/12 19:08:12;;;;;;;1.02;0.43;;;21.00;44.70;;;;;;20720562;28;20088;-78
2022/10/12 19:18:13;;;;;;;1.27;0.47;;;21.00;44.70;;;;;;20718452;28;20045;-78
2022/10/12 19:28:15;;;;;;;1.48;0.60;;;21.00;44.70;;;;;;20740106;28;20045;-78
2022/10/12 19:38:16;;;;;;;1.33;0.55;;;21.00;44.70;;;;;;20733191;28;20042;-77
2022/10/12 19:48:16;;;;;;;1.20;0.63;;;20.90;44.70;;;;;;20729285;28;20030;-77
2022/10/12 19:58:18;;;;;;;2.40;1.23;;;20.90;44.70;;;;;;20699613;28;20072;-78
2022/10/12 20:08:19;;;;;;;2.67;0.88;;;20.90;44.70;;;;;;20695923;28;20480;-77
2022/10/12 20:18:19;;;;;;;1.07;0.67;;;20.90;44.80;;;;;;20713558;28;20177;-78
2022/10/12 20:28:20;;;;;;;3.23;1.17;;;20.80;45.40;;;;;;20745762;28;20029;-77
2022/10/12 20:38:21;;;;;;;2.58;1.00;;;20.80;44.80;;;;;;20728064;28;20292;-77
2022/10/12 20:48:23;;;;;;;3.37;0.70;;;20.80;44.80;;;;;;20700649;28;20111;-77
2022/10/12 20:58:25;;;;;;;2.40;0.80;;;20.70;44.80;;;;;;20727521;28;20645;-78
2022/10/12 21:08:27;;;;;;;1.92;1.20;;;20.70;44.70;;;;;;20726047;28;20117;-78
2022/10/12 21:18:28;;;;;;;3.42;1.25;;;20.60;44.70;;;;;;20741659;28;20052;-79
2022/10/12 21:28:29;;;;;;;2.47;0.77;;;20.60;44.80;;;;;;20715774;28;20112;-78
2022/10/12 21:38:30;;;;;;;2.17;1.07;;;20.60;44.80;;;;;;20741445;28;20315;-78
2022/10/12 21:48:32;;;;;;;2.33;1.17;;;20.60;44.80;;;;;;20740122;28;20382;-78
2022/10/12 21:58:34;;;;;;;2.60;1.15;;;20.60;44.80;;;;;;20707451;28;20030;-78
2022/10/12 22:08:36;;;;;;;2.03;0.80;;;20.50;44.80;;;;;;20725270;28;20073;-79
2022/10/12 22:18:38;;;;;;;2.53;1.00;;;20.50;44.80;;;;;;20723042;28;20431;-78
2022/10/12 22:28:40;;;;;;;6.32;1.38;;;20.50;44.70;;;;;;20739167;28;20034;-78
2022/10/12 22:38:41;;;;;;;3.03;1.10;;;20.50;44.80;;;;;;20738547;28;20097;-78
2022/10/12 22:48:44;;;;;;;3.20;0.98;;;20.50;44.80;;;;;;20707299;28;20427;-79
2022/10/12 22:58:47;;;;;;;1.25;0.85;;;20.50;44.80;;;;;;20752711;28;20076;-77
2022/10/12 23:08:50;;;;;;;1.63;0.90;;;20.40;44.70;;;;;;20703721;28;20038;-78
2022/10/12 23:19:09;;;;;;;1.70;1.00;;;20.40;44.70;;;;;;20717406;28;20048;-78
2022/10/12 23:29:10;;;;;;;2.42;1.17;;;20.40;44.80;;;;;;20702004;28;20029;-79
2022/10/12 23:39:13;;;;;;;2.28;1.00;;;20.40;44.80;;;;;;20702079;28;20042;-78
2022/10/12 23:49:13;;;;;;;2.70;1.13;;;20.40;44.80;;;;;;20700999;28;20040;-78
2022/10/12 23:59:14;;;;;;;2.38;1.10;;;20.30;44.80;;;;;;20729929;28;20296;-78
